Time;durP1;ratioP1;P1;durP2;ratioP2;P2;SDS_P1;SDS_P2;PMS_P1;PMS_P2;Temp;Humidity;BMP_temperature;BMP_pressure;BME280_temperature;BME280_humidity;BME280_pressure;Samples;Min_cycle;Max_cycle;Signal;HPM_P1;HPM_P2
2023/01/02 00:01:49;;;;;;;10.57;2.22;;;10.80;99.90;;;;;;5052376;28;20025;-44
2023/01/02 00:04:15;;;;;;;5.22;2.28;;;10.70;99.90;;;;;;5052406;28;20078;-42
2023/01/02 00:06:40;;;;;;;11.48;2.47;;;10.70;99.90;;;;;;5052772;28;20474;-38
2023/01/02 00:09:07;;;;;;;4.90;2.15;;;10.70;99.90;;;;;;5053642;28;20021;-45
2023/01/02 00:11:33;;;;;;;5.22;2.17;;;10.70;99.90;;;;;;5053371;28;20021;-40
2023/01/02 00:13:58;;;;;;;5.53;2.15;;;10.80;99.90;;;;;;5053222;28;20037;-44
2023/01/02 00:16:24;;;;;;;3.67;2.17;;;10.70;99.90;;;;;;5051712;28;20040;-45
2023/01/02 00:18:50;;;;;;;3.92;2.00;;;10.70;99.90;;;;;;5053356;28;20017;-41
2023/01/02 00:21:16;;;;;;;4.35;2.15;;;10.70;99.90;;;;;;5052585;28;20107;-42
2023/01/02 00:23:43;;;;;;;3.53;2.22;;;10.70;99.90;;;;;;5052570;28;20037;-40
2023/01/02 00:26:08;;;;;;;6.63;2.00;;;10.80;99.90;;;;;;5053401;28;20070;-41
2023/01/02 00:28:35;;;;;;;7.07;2.00;;;10.70;99.90;;;;;;5052018;28;20029;-44
2023/01/02 00:31:08;;;;;;;3.17;1.80;;;10.70;99.90;;;;;;5052389;28;20025;-40
2023/01/02 00:33:35;;;;;;;3.42;1.92;;;10.70;99.90;;;;;;5051053;28;20100;-41
2023/01/02 00:36:07;;;;;;;2.58;1.83;;;10.70;99.90;;;;;;5052180;28;20037;-43
2023/01/02 00:38:33;;;;;;;5.47;2.10;;;10.80;99.90;;;;;;5053653;28;20093;-39
2023/01/02 00:40:59;;;;;;;4.45;2.22;;;10.70;99.90;;;;;;5052287;28;20035;-44
2023/01/02 00:43:25;;;;;;;3.15;2.00;;;10.70;99.90;;;;;;5051648;28;20108;-39
2023/01/02 00:45:51;;;;;;;3.20;1.90;;;10.70;99.90;;;;;;5052209;28;20573;-44
2023/01/02 00:48:17;;;;;;;3.80;2.38;;;10.70;99.90;;;;;;5051479;28;20063;-44
2023/01/02 00:50:43;;;;;;;5.45;2.25;;;10.70;99.90;;;;;;5053049;28;20036;-42
2023/01/02 00:53:09;;;;;;;5.10;2.50;;;10.70;99.90;;;;;;5052112;28;20052;-39
2023/01/02 00:55:35;;;;;;;5.53;2.25;;;10.70;99.90;;;;;;5052933;28;20500;-45
2023/01/02 00:58:00;;;;;;;7.60;2.30;;;10.70;99.90;;;;;;5051337;28;20111;-40
2023/01/02 01:00:26;;;;;;;4.90;1.98;;;10.70;99.90;;;;;;5051354;28;20029;-43
2023/01/02 01:02:56;;;;;;;4.75;2.38;;;10.80;99.90;;;;;;5052214;28;20029;-41
2023/01/02 01:05:23;;;;;;;6.32;2.08;;;10.70;99.90;;;;;;5052147;28;20024;-40
2023/01/02 01:07:48;;;;;;;3.95;2.28;;;10.70;99.90;;;;;;5051671;28;20013;-38
2023/01/02 01:10:14;;;;;;;3.28;1.70;;;10.70;99.90;;;;;;5052274;28;20314;-45
2023/01/02 01:12:40;;;;;;;3.05;2.00;;;10.70;99.90;;;;;;5052458;28;20021;-43
2023/01/02 01:15:06;;;;;;;3.00;1.80;;;10.70;99.90;;;;;;5050644;28;20123;-42
2023/01/02 01:17:32;;;;;;;5.38;2.22;;;10.70;99.90;;;;;;5052306;28;20040;-45
2023/01/02 01:19:58;;;;;;;4.93;2.55;;;10.70;99.90;;;;;;5051134;28;20044;-40
2023/01/02 01:22:24;;;;;;;7.88;2.47;;;10.70;99.90;;;;;;5050989;28;20029;-42
2023/01/02 01:24:49;;;;;;;5.80;2.35;;;10.70;99.90;;;;;;5051990;28;20025;-40
2023/01/02 01:27:15;;;;;;;5.65;2.38;;;10.70;99.90;;;;;;5050825;28;20501;-44
2023/01/02 01:29:40;;;;;;;5.85;2.40;;;10.70;99.90;;;;;;5051634;28;20108;-45
2023/01/02 01:32:06;;;;;;;2.80;1.70;;;10.70;99.90;;;;;;5051025;28;20033;-45
2023/01/02 01:34:31;;;;;;;5.63;2.60;;;10.70;99.90;;;;;;5050989;28;20116;-45
2023/01/02 01:36:57;;;;;;;2.67;1.95;;;10.70;99.90;;;;;;5051830;28;20024;-44
2023/01/02 01:39:23;;;;;;;3.22;2.10;;;10.70;99.90;;;;;;5052784;28;20029;-42
2023/01/02 01:41:48;;;;;;;7.65;2.30;;;10.70;99.90;;;;;;5051995;28;20056;-41
2023/01/02 01:44:41;;;;;;;3.10;1.88;;;10.70;99.90;;;;;;5053127;28;20053;-44
2023/01/02 01:47:36;;;;;;;4.22;2.10;;;10.70;99.90;;;;;;5054683;28;20021;-38
2023/01/02 01:50:23;;;;;;;4.70;2.42;;;10.70;99.90;;;;;;5054865;28;20099;-44
2023/01/02 01:53:20;;;;;;;6.40;2.40;;;10.70;99.90;;;;;;5054869;28;20099;-41
2023/01/02 01:55:52;;;;;;;4.72;2.08;;;10.70;99.90;;;;;;5046141;28;20040;-42
2023/01/02 01:58:27;;;;;;;5.55;2.20;;;10.70;99.90;;;;;;5054820;28;20518;-45
2023/01/02 02:00:54;;;;;;;4.20;2.20;;;10.70;99.90;;;;;;5055387;28;20032;-41
2023/01/02 02:03:22;;;;;;;4.28;2.35;;;10.70;99.90;;;;;;5055071;28;20036;-44
2023/01/02 02:05:48;;;;;;;4.82;2.28;;;10.70;99.90;;;;;;5055306;28;20114;-44
2023/01/02 02:08:19;;;;;;;3.42;2.25;;;10.70;99.90;;;;;;5055157;28;20029;-43
2023/01/02 02:10:45;;;;;;;4.68;2.35;;;10.70;99.90;;;;;;5056571;28;20056;-45
2023/01/02 02:13:11;;;;;;;6.45;2.70;;;10.70;99.90;;;;;;5055203;28;20184;-44
2023/01/02 02:16:11;;;;;;;4.82;1.90;;;10.70;99.90;;;;;;5054329;28;20104;-38
2023/01/02 02:18:40;;;;;;;3.88;2.20;;;10.70;99.90;;;;;;5056260;28;20117;-42
2023/01/02 02:21:29;;;;;;;6.00;1.90;;;10.70;99.90;;;;;;5054726;28;20560;-39
2023/01/02 02:24:12;;;;;;;5.05;2.25;;;10.70;99.90;;;;;;5055100;28;20053;-42
2023/01/02 02:27:06;;;;;;;3.88;2.15;;;10.70;99.90;;;;;;5054936;28;20025;-42
2023/01/02 02:29:50;;;;;;;5.43;2.40;;;10.70;99.90;;;;;;5054672;28;20108;-43
2023/01/02 02:32:36;;;;;;;3.42;2.00;;;10.70;99.90;;;;;;5055671;28;20025;-42
2023/01/02 02:35:05;;;;;;;4.85;2.28;;;10.70;99.90;;;;;;5055676;28;20492;-44
2023/01/02 02:37:55;;;;;;;4.25;2.33;;;10.70;99.90;;;;;;5054424;28;20103;-41
2023/01/02 02:40:48;;;;;;;4.25;2.10;;;10.70;99.90;;;;;;5055358;28;20017;-44
2023/01/02 02:43:30;;;;;;;7.90;2.08;;;10.70;99.90;;;;;;5055485;28;20044;-44
2023/01/02 02:46:04;;;;;;;6.13;2.08;;;10.70;99.90;;;;;;5053490;28;20376;-40
2023/01/02 02:48:51;;;;;;;4.80;2.00;;;10.70;99.90;;;;;;5054527;28;20110;-40
2023/01/02 02:51:29;;;;;;;3.83;2.25;;;10.70;99.90;;;;;;5054096;28;20558;-45
2023/01/02 02:54:17;;;;;;;3.40;1.95;;;10.70;99.90;;;;;;5054787;28;20100;-40
2023/01/02 02:56:44;;;;;;;3.22;1.95;;;10.70;99.90;;;;;;5049027;28;20056;-44
2023/01/02 02:59:11;;;;;;;5.00;2.42;;;10.70;99.90;;;;;;5054096;28;20040;-43
2023/01/02 03:01:37;;;;;;;4.25;2.67;;;10.70;99.90;;;;;;5054148;28;20044;-39
2023/01/02 03:04:14;;;;;;;5.70;2.22;;;10.70;99.90;;;;;;5055149;28;20036;-43
2023/01/02 03:07:02;;;;;;;5.15;2.03;;;10.70;99.90;;;;;;5054078;28;20021;-42
2023/01/02 03:09:27;;;;;;;6.38;2.13;;;10.70;99.90;;;;;;5053765;28;20475;-43
2023/01/02 03:12:01;;;;;;;4.40;2.30;;;10.70;99.90;;;;;;5054901;28;20082;-42
2023/01/02 03:14:44;;;;;;;5.63;2.40;;;10.70;99.90;;;;;;5053744;28;20471;-45
2023/01/02 03:17:39;;;;;;;3.67;1.95;;;10.70;99.90;;;;;;5053791;28;20595;-44
2023/01/02 03:20:12;;;;;;;7.50;2.33;;;10.70;99.90;;;;;;5053227;28;20465;-41
2023/01/02 03:22:42;;;;;;;4.13;2.08;;;10.70;99.90;;;;;;5053692;28;20035;-45
2023/01/02 03:25:10;;;;;;;7.75;2.25;;;10.70;99.90;;;;;;5053172;28;20021;-42
2023/01/02 03:27:42;;;;;;;3.47;1.80;;;10.70;99.90;;;;;;5053125;28;20475;-40
2023/01/02 03:30:13;;;;;;;8.20;2.40;;;10.70;99.90;;;;;;5054242;28;20494;-45
2023/01/02 03:32:44;;;;;;;2.85;1.70;;;10.70;99.90;;;;;;5053234;28;20046;-45
2023/01/02 03:35:14;;;;;;;8.18;2.60;;;10.70;99.90;;;;;;5053040;28;20456;-39
2023/01/02 03:37:47;;;;;;;4.47;2.10;;;10.70;99.90;;;;;;5052539;28;20082;-45
2023/01/02 03:40:18;;;;;;;3.28;1.90;;;10.70;99.90;;;;;;5053407;28;20083;-45
2023/01/02 03:43:07;;;;;;;6.72;2.42;;;10.70;99.90;;;;;;5053559;28;20084;-45
2023/01/02 03:45:38;;;;;;;4.43;2.10;;;10.70;99.90;;;;;;5052765;28;20033;-43
2023/01/02 03:48:27;;;;;;;5.50;2.20;;;10.70;99.90;;;;;;5053386;28;20032;-39
2023/01/02 03:50:56;;;;;;;5.00;2.10;;;10.70;99.90;;;;;;5052691;28;20028;-41
2023/01/02 03:53:23;;;;;;;4.05;1.83;;;10.70;99.90;;;;;;5053030;28;20029;-40
2023/01/02 03:56:03;;;;;;;5.47;2.20;;;10.70;99.90;;;;;;5052639;28;20032;-44
2023/01/02 03:58:42;;;;;;;4.53;1.98;;;10.70;99.90;;;;;;5053785;28;20028;-45
2023/01/02 04:01:13;;;;;;;7.68;2.15;;;10.60;99.90;;;;;;5053764;28;20036;-42
2023/01/02 04:03:51;;;;;;;5.65;2.08;;;10.70;99.90;;;;;;5051934;28;20032;-45
2023/01/02 04:06:28;;;;;;;6.80;2.05;;;10.70;99.90;;;;;;5052462;28;20405;-40
2023/01/02 04:09:09;;;;;;;4.82;2.03;;;10.70;99.90;;;;;;5054034;28;20502;-40
2023/01/02 04:11:38;;;;;;;5.00;2.42;;;10.70;99.90;;;;;;5053514;28;20021;-45
2023/01/02 04:14:13;;;;;;;5.68;1.70;;;10.70;99.90;;;;;;5053082;28;20029;-43
2023/01/02 04:16:40;;;;;;;6.20;2.20;;;10.70;99.90;;;;;;5053647;28;20021;-40
2023/01/02 04:19:13;;;;;;;4.60;1.98;;;10.70;99.90;;;;;;5052794;28;20114;-45
2023/01/02 04:21:42;;;;;;;6.43;2.10;;;10.70;99.90;;;;;;5052780;28;20028;-39
2023/01/02 04:24:16;;;;;;;5.18;2.22;;;10.70;99.90;;;;;;5053869;28;20505;-45
2023/01/02 04:26:50;;;;;;;4.95;1.70;;;10.70;99.90;;;;;;5053287;28;20021;-39
2023/01/02 04:29:18;;;;;;;5.70;2.20;;;10.70;99.90;;;;;;5052460;28;20051;-45
2023/01/02 04:31:56;;;;;;;4.72;2.20;;;10.70;99.90;;;;;;5052557;28;20013;-45
2023/01/02 04:34:25;;;;;;;4.60;2.20;;;10.70;99.90;;;;;;5052752;28;20513;-39
2023/01/02 04:36:50;;;;;;;4.75;2.05;;;10.70;99.90;;;;;;5052137;28;20552;-36
2023/01/02 04:39:19;;;;;;;4.82;2.00;;;10.60;99.90;;;;;;5052774;28;20037;-45
2023/01/02 04:41:44;;;;;;;4.93;1.90;;;10.70;99.90;;;;;;5053250;28;20478;-44
2023/01/02 04:44:10;;;;;;;5.70;2.17;;;10.70;99.90;;;;;;5052641;28;20055;-44
2023/01/02 04:46:36;;;;;;;6.35;2.00;;;10.70;99.90;;;;;;5051970;28;20036;-44
2023/01/02 04:49:01;;;;;;;6.18;2.22;;;10.70;99.90;;;;;;5052545;28;20065;-45
2023/01/02 04:51:27;;;;;;;6.82;2.30;;;10.70;99.90;;;;;;5053073;28;20108;-41
2023/01/02 04:53:53;;;;;;;5.07;2.28;;;10.60;99.90;;;;;;5051609;28;20060;-39
2023/01/02 04:56:19;;;;;;;5.30;2.10;;;10.70;99.90;;;;;;5051077;28;20045;-41
2023/01/02 04:58:45;;;;;;;5.03;2.00;;;10.60;99.90;;;;;;5051215;28;20025;-40
2023/01/02 05:01:14;;;;;;;3.97;2.17;;;10.60;99.90;;;;;;5051498;28;20471;-45
2023/01/02 05:03:45;;;;;;;5.03;2.20;;;10.60;99.90;;;;;;5052317;28;20104;-41
2023/01/02 05:06:12;;;;;;;4.85;2.05;;;10.60;99.90;;;;;;5051754;28;20020;-44
2023/01/02 05:08:38;;;;;;;6.00;2.10;;;10.60;99.90;;;;;;5054138;28;20105;-45
2023/01/02 05:11:09;;;;;;;4.97;2.47;;;10.60;99.90;;;;;;5052215;28;20095;-44
2023/01/02 05:13:35;;;;;;;3.90;2.20;;;10.60;99.90;;;;;;5051835;28;20029;-43
2023/01/02 05:16:02;;;;;;;7.38;2.42;;;10.60;99.90;;;;;;5051615;28;20614;-36
2023/01/02 05:18:28;;;;;;;2.63;1.70;;;10.60;99.90;;;;;;5054264;28;20027;-40
2023/01/02 05:21:03;;;;;;;4.25;1.98;;;10.60;99.90;;;;;;5058366;28;20021;-44
2023/01/02 05:23:47;;;;;;;6.22;2.28;;;10.60;99.90;;;;;;5057692;28;20037;-43
2023/01/02 05:26:14;;;;;;;6.60;2.15;;;10.60;99.90;;;;;;5057524;28;20495;-38
2023/01/02 05:28:40;;;;;;;5.53;2.20;;;10.60;99.90;;;;;;5057780;28;20777;-44
2023/01/02 05:31:06;;;;;;;5.53;2.10;;;10.60;99.90;;;;;;5057667;28;20652;-43
2023/01/02 05:33:32;;;;;;;5.00;2.30;;;10.60;99.90;;;;;;5058609;28;20534;-45
2023/01/02 05:35:57;;;;;;;3.10;2.00;;;10.60;99.90;;;;;;5058338;28;20033;-41
2023/01/02 05:38:23;;;;;;;5.28;1.85;;;10.60;99.90;;;;;;5058223;28;20056;-43
2023/01/02 05:40:49;;;;;;;5.25;2.38;;;10.60;99.90;;;;;;5058073;28;20512;-44
2023/01/02 05:43:14;;;;;;;7.40;2.13;;;10.60;99.90;;;;;;5058844;28;20025;-41
2023/01/02 05:45:40;;;;;;;4.43;1.90;;;10.60;99.90;;;;;;5058432;28;20379;-41
2023/01/02 05:48:05;;;;;;;4.22;2.10;;;10.60;99.90;;;;;;5057900;28;20017;-42
2023/01/02 05:50:31;;;;;;;3.88;2.22;;;10.60;99.90;;;;;;5058321;28;20052;-44
2023/01/02 05:52:56;;;;;;;6.20;2.47;;;10.60;99.90;;;;;;5057503;28;20434;-43
2023/01/02 05:55:22;;;;;;;5.53;2.30;;;10.60;99.90;;;;;;5057596;28;20037;-44
2023/01/02 05:57:48;;;;;;;5.97;2.50;;;10.60;99.90;;;;;;5057394;28;20025;-38
2023/01/02 06:00:14;;;;;;;5.18;2.00;;;10.60;99.90;;;;;;5058116;28;20112;-39
2023/01/02 06:02:40;;;;;;;7.85;2.42;;;10.60;99.90;;;;;;5058003;28;20029;-39
2023/01/02 06:05:07;;;;;;;6.10;2.53;;;10.60;99.90;;;;;;5058308;28;20517;-41
2023/01/02 06:07:32;;;;;;;4.63;2.20;;;10.60;99.90;;;;;;5057768;28;20052;-41
2023/01/02 06:09:58;;;;;;;4.32;2.03;;;10.60;99.90;;;;;;5059202;28;20052;-45
2023/01/02 06:12:23;;;;;;;4.35;2.20;;;10.60;99.90;;;;;;5057719;28;20084;-45
2023/01/02 06:14:49;;;;;;;6.32;2.35;;;10.70;99.90;;;;;;5057842;28;20433;-41
2023/01/02 06:17:14;;;;;;;7.28;2.53;;;10.60;99.90;;;;;;5057625;28;20024;-39
2023/01/02 06:19:40;;;;;;;6.43;2.05;;;10.60;99.90;;;;;;5058684;28;20487;-38
2023/01/02 06:22:06;;;;;;;8.57;2.15;;;10.60;99.90;;;;;;5057637;28;20025;-39
2023/01/02 06:24:31;;;;;;;5.63;1.92;;;10.60;99.90;;;;;;5057215;28;20053;-43
2023/01/02 06:26:57;;;;;;;3.95;2.10;;;10.60;99.90;;;;;;5057552;28;20017;-41
2023/01/02 06:29:22;;;;;;;3.72;2.22;;;10.60;99.90;;;;;;5057865;28;20512;-44
2023/01/02 06:31:48;;;;;;;6.97;2.20;;;10.60;99.90;;;;;;5055031;28;20028;-44
2023/01/02 06:34:16;;;;;;;7.60;1.95;;;10.60;99.90;;;;;;5055097;28;20036;-40
2023/01/02 06:36:42;;;;;;;4.15;2.40;;;10.60;99.90;;;;;;5055193;28;20470;-45
2023/01/02 06:39:07;;;;;;;4.50;2.63;;;10.60;99.90;;;;;;5054198;28;20112;-40
2023/01/02 06:41:33;;;;;;;4.25;2.00;;;10.60;99.90;;;;;;5054391;28;20035;-40
2023/01/02 06:43:58;;;;;;;7.05;2.58;;;10.60;99.90;;;;;;5053772;28;20035;-41
2023/01/02 06:46:24;;;;;;;4.10;2.05;;;10.60;99.90;;;;;;5053827;28;20033;-45
2023/01/02 06:48:50;;;;;;;5.05;1.85;;;10.60;99.90;;;;;;5054810;28;20025;-42
2023/01/02 06:51:18;;;;;;;3.50;2.20;;;10.60;99.90;;;;;;5054787;28;20036;-38
2023/01/02 06:53:45;;;;;;;3.85;2.10;;;10.60;99.90;;;;;;5053628;28;20021;-42
2023/01/02 06:56:12;;;;;;;5.00;2.25;;;10.60;99.90;;;;;;5054110;28;20456;-40
2023/01/02 06:58:38;;;;;;;3.90;2.22;;;10.60;99.90;;;;;;5054034;28;20053;-45
2023/01/02 07:01:06;;;;;;;8.15;2.60;;;10.60;99.90;;;;;;5053808;28;20086;-38
2023/01/02 07:03:32;;;;;;;5.80;2.30;;;10.60;99.90;;;;;;5053378;28;20113;-41
2023/01/02 07:06:06;;;;;;;5.35;2.38;;;10.60;99.90;;;;;;5053116;28;20099;-44
2023/01/02 07:08:32;;;;;;;6.45;2.50;;;10.60;99.90;;;;;;5052013;28;20017;-45
2023/01/02 07:11:19;;;;;;;4.82;2.58;;;10.60;99.90;;;;;;5053575;28;20021;-45
2023/01/02 07:13:46;;;;;;;5.55;2.30;;;10.50;99.90;;;;;;5053400;28;20039;-42
2023/01/02 07:16:15;;;;;;;5.85;2.30;;;10.60;99.90;;;;;;5053428;28;20060;-40
2023/01/02 07:18:40;;;;;;;7.50;2.15;;;10.60;99.90;;;;;;5053189;28;20029;-42
2023/01/02 07:21:07;;;;;;;4.57;2.67;;;10.60;99.90;;;;;;5053559;28;20025;-43
2023/01/02 07:23:33;;;;;;;4.55;2.50;;;10.50;99.90;;;;;;5053201;28;20032;-42
2023/01/02 07:26:01;;;;;;;4.68;2.17;;;10.50;99.90;;;;;;5054179;28;20471;-45
2023/01/02 07:28:28;;;;;;;5.55;2.20;;;10.60;99.90;;;;;;5054420;28;20037;-39
2023/01/02 07:30:58;;;;;;;7.20;2.58;;;10.50;99.90;;;;;;5053978;28;20467;-45
2023/01/02 07:33:24;;;;;;;4.25;2.40;;;10.50;99.90;;;;;;5053382;28;20104;-38
2023/01/02 07:35:50;;;;;;;6.18;2.30;;;10.50;99.90;;;;;;5054024;28;20029;-44
2023/01/02 07:38:15;;;;;;;6.88;2.08;;;10.50;99.90;;;;;;5054620;28;20029;-42
2023/01/02 07:40:41;;;;;;;6.10;2.53;;;10.50;99.90;;;;;;5052913;28;20498;-38
2023/01/02 07:43:07;;;;;;;5.90;2.20;;;10.50;99.90;;;;;;5052736;28;20131;-45
2023/01/02 07:45:33;;;;;;;8.75;2.10;;;10.50;99.90;;;;;;5053247;28;20462;-43
2023/01/02 07:47:59;;;;;;;10.85;2.58;;;10.50;99.90;;;;;;5052365;28;20097;-44
2023/01/02 07:50:24;;;;;;;16.65;2.78;;;10.50;99.90;;;;;;5052552;28;20589;-44
2023/01/02 07:52:50;;;;;;;11.93;2.67;;;10.40;99.90;;;;;;5052822;28;20036;-43
2023/01/02 07:55:16;;;;;;;8.18;2.67;;;10.50;99.90;;;;;;5052416;28;20119;-44
2023/01/02 07:57:41;;;;;;;7.22;2.25;;;10.40;99.90;;;;;;5052109;28;20148;-43
2023/01/02 08:00:08;;;;;;;15.55;2.88;;;10.40;99.90;;;;;;5052271;28;20083;-43
2023/01/02 08:02:33;;;;;;;8.15;2.80;;;10.40;99.90;;;;;;5052546;28;20056;-44
2023/01/02 08:04:59;;;;;;;9.00;2.58;;;10.40;99.90;;;;;;5052308;28;20563;-43
2023/01/02 08:07:24;;;;;;;8.95;2.50;;;10.40;99.90;;;;;;5051944;28;20021;-42
2023/01/02 08:09:50;;;;;;;9.45;3.13;;;10.40;99.90;;;;;;5052169;28;20356;-43
2023/01/02 08:12:15;;;;;;;14.85;2.70;;;10.50;99.90;;;;;;5052085;28;20021;-41
2023/01/02 08:14:41;;;;;;;8.75;2.33;;;10.40;99.90;;;;;;5052003;28;20028;-41
2023/01/02 08:17:07;;;;;;;8.90;2.28;;;10.40;99.90;;;;;;5051765;28;20386;-43
2023/01/02 08:19:32;;;;;;;9.10;2.60;;;10.40;99.90;;;;;;5052076;28;20029;-39
2023/01/02 08:21:58;;;;;;;7.95;2.67;;;10.40;99.90;;;;;;5052244;28;20529;-44
2023/01/02 08:24:23;;;;;;;8.35;2.38;;;10.40;99.90;;;;;;5052444;28;20028;-44
2023/01/02 08:26:49;;;;;;;7.32;2.75;;;10.50;99.90;;;;;;5051645;28;20442;-44
2023/01/02 08:29:15;;;;;;;8.27;2.67;;;10.50;99.90;;;;;;5052290;28;20107;-41
2023/01/02 08:31:40;;;;;;;7.68;2.60;;;10.50;99.90;;;;;;5051801;28;20463;-45
2023/01/02 08:34:06;;;;;;;11.93;2.95;;;10.40;99.90;;;;;;5051765;28;20033;-46
2023/01/02 08:36:34;;;;;;;9.27;2.33;;;10.50;99.90;;;;;;5051541;28;20021;-43
2023/01/02 08:39:00;;;;;;;5.97;2.25;;;10.50;99.90;;;;;;5051710;28;20060;-44
2023/01/02 08:41:30;;;;;;;6.68;2.72;;;10.50;99.90;;;;;;5051640;28;20064;-44
2023/01/02 08:43:56;;;;;;;6.13;2.50;;;10.40;99.90;;;;;;5051452;28;20033;-44
2023/01/02 08:46:21;;;;;;;9.45;2.90;;;10.40;99.90;;;;;;5051350;28;20017;-44
2023/01/02 08:48:47;;;;;;;11.23;3.15;;;10.50;99.90;;;;;;5051483;28;20521;-43
2023/01/02 08:51:12;;;;;;;9.07;3.10;;;10.40;99.90;;;;;;5051866;28;20052;-43
2023/01/02 08:53:38;;;;;;;6.35;2.75;;;10.50;99.90;;;;;;5050732;28;20029;-43
2023/01/02 08:56:26;;;;;;;6.07;2.47;;;10.50;99.90;;;;;;5051061;28;20039;-44
2023/01/02 08:59:04;;;;;;;6.50;2.28;;;10.50;99.90;;;;;;5051372;28;20485;-43
2023/01/02 09:01:31;;;;;;;8.07;2.28;;;10.50;99.90;;;;;;5051424;28;20450;-43
2023/01/02 09:03:57;;;;;;;7.78;2.60;;;10.50;99.90;;;;;;5051209;28;20507;-42
2023/01/02 09:06:24;;;;;;;7.25;2.40;;;10.50;99.90;;;;;;5051174;28;20064;-43
2023/01/02 09:08:51;;;;;;;7.22;2.60;;;10.50;99.90;;;;;;5051101;28;20021;-43
2023/01/02 09:11:30;;;;;;;10.55;3.08;;;10.60;99.90;;;;;;5051330;28;20060;-44
2023/01/02 09:13:57;;;;;;;7.90;2.72;;;10.60;99.90;;;;;;5051276;28;20126;-43
2023/01/02 09:16:23;;;;;;;13.88;2.92;;;10.60;99.90;;;;;;5050955;28;20032;-43
2023/01/02 09:18:50;;;;;;;8.27;2.85;;;10.80;99.90;;;;;;5051052;28;20387;-43
2023/01/02 09:21:15;;;;;;;13.98;3.38;;;10.90;99.90;;;;;;5051002;28;20535;-44
2023/01/02 09:23:41;;;;;;;9.02;2.70;;;11.00;99.90;;;;;;5051102;28;20379;-44
2023/01/02 09:26:09;;;;;;;7.05;2.58;;;11.10;99.90;;;;;;5050876;28;20067;-44
2023/01/02 09:28:35;;;;;;;6.80;2.22;;;11.10;99.90;;;;;;5051003;28;20028;-44
2023/01/02 09:31:06;;;;;;;7.95;2.25;;;11.20;99.90;;;;;;5051074;28;20382;-44
2023/01/02 09:33:32;;;;;;;6.18;2.47;;;11.20;99.90;;;;;;5051070;28;20534;-44
2023/01/02 09:36:02;;;;;;;10.10;2.28;;;11.30;99.90;;;;;;5050695;28;20036;-44
2023/01/02 09:38:28;;;;;;;10.48;2.40;;;11.40;99.90;;;;;;5051092;28;20021;-44
2023/01/02 09:40:55;;;;;;;5.53;2.40;;;11.40;99.90;;;;;;5052975;28;20063;-44
2023/01/02 09:43:40;;;;;;;10.27;2.17;;;11.40;99.90;;;;;;5051492;28;20036;-42
2023/01/02 09:46:11;;;;;;;11.98;2.38;;;11.40;99.90;;;;;;5050929;28;20104;-42
2023/01/02 09:48:37;;;;;;;7.55;2.20;;;11.40;99.90;;;;;;5050788;28;20017;-44
2023/01/02 09:51:04;;;;;;;5.35;2.20;;;11.40;99.90;;;;;;5050848;28;20033;-41
2023/01/02 09:53:32;;;;;;;10.13;2.20;;;11.40;99.90;;;;;;5050905;28;20482;-43
2023/01/02 09:56:14;;;;;;;12.25;2.35;;;11.40;99.90;;;;;;5052641;28;20064;-43
2023/01/02 09:58:44;;;;;;;8.32;2.58;;;11.40;99.90;;;;;;5051827;28;20443;-42
2023/01/02 10:01:36;;;;;;;5.47;2.28;;;11.40;99.90;;;;;;5052172;28;20500;-44
2023/01/02 10:04:29;;;;;;;5.10;2.28;;;11.40;99.90;;;;;;5051800;28;20475;-41
2023/01/02 10:07:33;;;;;;;6.53;2.08;;;11.30;99.90;;;;;;5055151;28;20033;-45
2023/01/02 10:10:25;;;;;;;6.68;2.30;;;11.30;99.90;;;;;;5053031;28;20113;-42
2023/01/02 10:13:22;;;;;;;4.65;2.15;;;11.30;99.90;;;;;;5054844;28;20037;-44
2023/01/02 10:15:50;;;;;;;7.65;1.90;;;11.40;99.90;;;;;;5050940;28;20288;-45
2023/01/02 10:18:30;;;;;;;4.38;1.52;;;11.40;99.90;;;;;;5054210;28;20044;-43
2023/01/02 10:21:24;;;;;;;6.18;2.20;;;11.40;99.90;;;;;;5054374;28;20032;-42
2023/01/02 10:24:24;;;;;;;5.80;2.00;;;11.40;99.90;;;;;;5055281;28;20117;-44
2023/01/02 10:26:52;;;;;;;4.88;1.83;;;11.40;99.90;;;;;;5054161;28;20021;-44
2023/01/02 10:29:41;;;;;;;4.30;2.00;;;11.40;99.90;;;;;;5055150;28;20017;-44
2023/01/02 10:32:19;;;;;;;5.40;1.88;;;11.40;99.90;;;;;;5055284;28;20036;-43
2023/01/02 10:35:06;;;;;;;3.75;1.83;;;11.40;99.90;;;;;;5054231;28;20041;-44
2023/01/02 10:37:33;;;;;;;3.65;2.05;;;11.40;99.90;;;;;;5054284;28;20023;-44
2023/01/02 10:39:58;;;;;;;3.30;1.95;;;11.40;99.90;;;;;;5054241;28;20571;-43
2023/01/02 10:42:24;;;;;;;5.45;1.88;;;11.40;99.90;;;;;;5054595;28;20108;-42
2023/01/02 10:44:50;;;;;;;3.40;1.90;;;11.50;99.90;;;;;;5054665;28;20040;-42
2023/01/02 10:47:33;;;;;;;3.90;1.85;;;11.50;99.90;;;;;;5053815;28;20027;-43
2023/01/02 10:50:00;;;;;;;5.50;2.38;;;11.40;99.90;;;;;;5054452;28;20021;-45
2023/01/02 10:52:36;;;;;;;3.55;1.80;;;11.40;99.90;;;;;;5053711;28;20059;-43
2023/01/02 10:55:02;;;;;;;8.68;2.20;;;11.40;99.90;;;;;;5053784;28;20556;-44
2023/01/02 10:57:44;;;;;;;5.18;2.08;;;11.40;99.90;;;;;;5053701;28;20033;-44
2023/01/02 11:00:31;;;;;;;5.85;2.00;;;11.40;99.90;;;;;;5053540;28;20440;-45
2023/01/02 11:03:21;;;;;;;4.45;1.98;;;11.40;99.90;;;;;;5053344;28;20021;-40
2023/01/02 11:05:50;;;;;;;5.95;2.45;;;11.40;99.90;;;;;;5047446;28;20510;-43
2023/01/02 11:08:22;;;;;;;5.90;2.08;;;11.40;99.90;;;;;;5053781;28;20055;-43
2023/01/02 11:10:49;;;;;;;6.28;1.92;;;11.50;99.90;;;;;;5052223;28;20035;-40
2023/01/02 11:13:17;;;;;;;4.85;2.00;;;11.50;99.90;;;;;;5053339;28;20025;-42
2023/01/02 11:15:57;;;;;;;4.57;2.13;;;11.50;99.90;;;;;;5053161;28;20029;-40
2023/01/02 11:18:30;;;;;;;4.53;1.77;;;11.50;99.90;;;;;;5053205;28;20028;-44
2023/01/02 11:21:03;;;;;;;5.32;1.67;;;11.60;99.90;;;;;;5053135;28;20544;-41
2023/01/02 11:23:41;;;;;;;5.88;2.17;;;11.60;99.90;;;;;;5053099;28;20036;-42
2023/01/02 11:26:19;;;;;;;5.80;2.05;;;11.70;99.90;;;;;;5053366;28;20474;-44
2023/01/02 11:28:46;;;;;;;5.57;1.98;;;11.80;99.90;;;;;;5052965;28;20021;-44
2023/01/02 11:31:15;;;;;;;7.18;2.10;;;11.80;99.90;;;;;;5052960;28;20025;-44
2023/01/02 11:33:42;;;;;;;4.63;1.90;;;11.80;99.90;;;;;;5052992;28;20033;-43
2023/01/02 11:36:11;;;;;;;10.13;2.03;;;11.80;99.90;;;;;;5052671;28;20021;-43
2023/01/02 11:38:55;;;;;;;10.05;2.05;;;11.80;99.90;;;;;;5052636;28;20116;-43
2023/01/02 11:44:44;;;;;;;9.23;2.10;;;11.80;99.90;;;;;;5053131;28;20044;-42
2023/01/02 11:47:13;;;;;;;9.63;2.80;;;11.70;99.90;;;;;;5052420;28;20518;-43
2023/01/02 11:49:48;;;;;;;15.55;2.85;;;11.80;99.90;;;;;;5053211;28;20017;-43
2023/01/02 11:52:24;;;;;;;11.57;2.42;;;11.80;99.90;;;;;;5052880;28;20040;-44
2023/01/02 11:55:02;;;;;;;8.27;2.22;;;11.70;99.90;;;;;;5053143;28;20390;-44
2023/01/02 11:57:38;;;;;;;11.70;2.42;;;11.70;99.90;;;;;;5052602;28;20123;-43
2023/01/02 12:00:11;;;;;;;10.43;2.00;;;11.70;99.90;;;;;;5052483;28;20021;-43
2023/01/02 12:02:43;;;;;;;7.70;1.95;;;11.60;99.90;;;;;;5052430;28;20486;-43
2023/01/02 12:05:34;;;;;;;6.07;1.98;;;11.60;99.90;;;;;;5052551;28;20100;-40
2023/01/02 12:08:12;;;;;;;5.63;2.20;;;11.60;99.90;;;;;;5047467;28;20162;-42
2023/01/02 12:11:00;;;;;;;9.93;2.10;;;11.60;99.90;;;;;;5052304;28;20013;-43
2023/01/02 12:14:05;;;;;;;14.13;2.20;;;11.70;99.90;;;;;;5052297;28;20020;-41
2023/01/02 12:16:49;;;;;;;13.23;2.50;;;11.70;99.90;;;;;;5052313;28;20534;-43
2023/01/02 12:19:52;;;;;;;10.15;2.60;;;11.60;99.90;;;;;;5053494;28;20025;-43
2023/01/02 12:22:51;;;;;;;7.28;2.20;;;11.60;99.90;;;;;;5052085;28;20087;-43
2023/01/02 12:25:26;;;;;;;11.73;2.55;;;11.60;99.90;;;;;;5052948;28;20047;-43
2023/01/02 12:28:05;;;;;;;9.75;2.53;;;11.60;99.90;;;;;;5051221;28;20033;-43
2023/01/02 12:30:37;;;;;;;8.55;2.30;;;11.50;99.90;;;;;;5052445;28;20021;-42
2023/01/02 12:33:05;;;;;;;7.18;2.42;;;11.50;99.90;;;;;;5052499;28;20124;-44
2023/01/02 12:35:50;;;;;;;8.98;1.90;;;11.50;99.90;;;;;;5052914;28;20091;-42
2023/01/02 12:38:30;;;;;;;7.95;2.25;;;11.50;99.90;;;;;;5052158;28;20025;-41
2023/01/02 12:41:56;;;;;;;8.27;2.67;;;11.50;99.90;;;;;;5051837;28;20036;-43
2023/01/02 12:44:30;;;;;;;8.25;2.45;;;11.50;99.90;;;;;;5010649;28;20033;-44
2023/01/02 12:47:31;;;;;;;6.38;2.08;;;11.40;99.90;;;;;;5052713;28;20490;-44
2023/01/02 12:50:05;;;;;;;11.75;2.35;;;11.50;99.90;;;;;;5040275;28;20033;-43
2023/01/02 12:53:04;;;;;;;8.70;2.25;;;11.50;99.90;;;;;;5051465;28;20021;-42
2023/01/02 12:55:35;;;;;;;6.43;2.03;;;11.40;99.90;;;;;;5051933;28;20036;-43
2023/01/02 12:58:19;;;;;;;6.15;1.85;;;11.40;99.90;;;;;;5051769;28;20450;-42
2023/01/02 13:01:04;;;;;;;9.43;2.38;;;11.40;99.90;;;;;;5051862;28;20108;-43
2023/01/02 13:03:49;;;;;;;10.18;2.38;;;11.50;99.90;;;;;;5051420;28;20029;-44
2023/01/02 13:06:22;;;;;;;4.55;2.05;;;11.40;99.90;;;;;;5052109;28;20044;-43
2023/01/02 13:08:57;;;;;;;9.32;2.22;;;11.40;99.90;;;;;;5052323;28;20025;-43
2023/01/02 13:11:31;;;;;;;9.40;2.63;;;11.40;99.90;;;;;;5052015;28;20017;-41
2023/01/02 13:13:59;;;;;;;6.93;2.17;;;11.40;99.90;;;;;;5052161;28;20033;-45